Impacts METAR Board
IDs:

KLXY - Mexia/Limestone Cnty, TX, US

Updated at: 0600 UTC 19 Aug 2019
Potential Impact None Slight Moderate High
Time 18/18Z 18/19Z 18/20Z 18/21Z 18/22Z 18/23Z 19/00Z 19/01Z 19/02Z 19/03Z 19/04Z 19/05Z 19/06Z
Temp92 94 95 96 96 96 94 90 85 85 83 82 83
Dewpt70 70 69 69 69 69 69 68 70 70 71 72 72
Altim29.92 29.90 29.88 29.86 29.86 29.86 29.85 29.84 29.84 29.88 29.91 29.92 29.93
VIS10 10 10 10 10 10 10 10 10 10 10 10 10
CIG-- -- -- -- -- -- -- -- -- -- -- -- --
CoverSCTSCTSCTSCTSCTCLRCLRCLRCLRCLRCLRCLRCLR
FltCatVFRVFRVFRVFRVFRVFRVFRVFRVFRVFRVFRVFRVFR
WX--------------------------
WDir200150160160160170160160140180160190190
WSpd13 6 9 8 9 10 5 4 3 8 5 11 11
WGst19 20 20 15 16 -- -- -- -- -- -- -- 15
Raw hourly METARs
KLXY 181755Z AUTO 20013G19KT 10SM SCT046 34/21 A2992 RMK AO2 T03360212 10336 20257
KLXY 181855Z AUTO 15006G20KT 10SM SCT049 34/21 A2990 RMK AO2 T03430213
KLXY 181955Z AUTO 16009G20KT 10SM SCT055 35/21 A2988 RMK AO2 T03510208
KLXY 182055Z AUTO 16008G15KT 10SM SCT060 36/21 A2986 RMK AO2 LTG DSNT SE T03560207
KLXY 182155Z AUTO 16009G16KT 10SM SCT060 36/20 A2986 RMK AO2 LTG DSNT SE T03560204
KLXY 182255Z AUTO 17010KT 10SM CLR 36/20 A2986 RMK AO2 T03560204
KLXY 182355Z AUTO 16005KT 10SM CLR 35/21 A2985 RMK AO2 T03460206 10363 20332
KLXY 190055Z AUTO 16004KT 10SM CLR 32/20 A2984 RMK AO2 T03230201
KLXY 190155Z AUTO 14003KT 10SM CLR 30/21 A2984 RMK AO2 LTG DSNT SE T02970210
KLXY 190255Z AUTO 18008KT 10SM CLR 30/21 A2988 RMK AO2 T02970212
KLXY 190355Z AUTO 16005KT 10SM CLR 29/22 A2991 RMK AO2 T02850217
KLXY 190455Z AUTO 19011KT 10SM CLR 28/22 A2992 RMK AO2 T02780223
KLXY 190555Z AUTO 19011G15KT 10SM CLR 28/22 A2993 RMK AO2 T02820222 10346 20275 403630253



Page loaded:  06:16 UTC  |   11:16 PM Pacific  |   12:16 AM Mountain  |   01:16 AM Central  |   02:16 AM Eastern

 

ADVISORIES

FORECASTS

FORECASTS

OBSERVATIONS

USER TOOLS

ABOUT US